Time;durP1;ratioP1;P1;durP2;ratioP2;P2;SDS_P1;SDS_P2;PMS_P1;PMS_P2;Temp;Humidity;BMP_temperature;BMP_pressure;BME280_temperature;BME280_humidity;BME280_pressure;Samples;Min_cycle;Max_cycle;Signal;HPM_P1;HPM_P2
2021/01/18 00:02:06;;;;;;;38.05;18.85;;;2.30;99.80;;;;;;5017073;28;20225;-84
2021/01/18 00:04:33;;;;;;;39.08;20.08;;;2.40;99.80;;;;;;5032183;28;20640;-86
2021/01/18 00:07:04;;;;;;;39.28;18.55;;;2.40;99.80;;;;;;5056888;28;20747;-84
2021/01/18 00:09:31;;;;;;;35.67;17.65;;;2.40;99.80;;;;;;5047011;28;20255;-84
2021/01/18 00:11:58;;;;;;;35.30;19.42;;;2.40;99.80;;;;;;5043003;28;20215;-84
2021/01/18 00:14:28;;;;;;;37.95;19.55;;;2.40;99.80;;;;;;5041819;28;20658;-84
2021/01/18 00:16:55;;;;;;;34.40;19.10;;;2.50;99.80;;;;;;5035907;28;20222;-84
2021/01/18 00:19:25;;;;;;;37.30;17.30;;;2.50;99.80;;;;;;5067190;28;20254;-83
2021/01/18 00:21:52;;;;;;;36.83;18.52;;;2.50;99.80;;;;;;5065054;28;20227;-84
2021/01/18 00:24:19;;;;;;;35.92;17.98;;;2.50;99.80;;;;;;5061317;28;20236;-85
2021/01/18 00:26:48;;;;;;;45.35;17.42;;;2.50;99.80;;;;;;5061792;28;20233;-83
2021/01/18 00:29:15;;;;;;;35.33;18.85;;;2.50;99.80;;;;;;5063089;28;20226;-84
2021/01/18 00:31:46;;;;;;;35.42;19.67;;;2.50;99.80;;;;;;5041791;28;20235;-83
2021/01/18 00:34:13;;;;;;;36.13;17.85;;;2.50;99.80;;;;;;5074088;28;20298;-83
2021/01/18 00:36:46;;;;;;;38.97;19.48;;;2.60;99.80;;;;;;5068547;28;20300;-83
2021/01/18 00:39:13;;;;;;;35.17;18.45;;;2.50;99.80;;;;;;5070334;28;20953;-84
2021/01/18 00:41:41;;;;;;;35.80;18.10;;;2.50;99.80;;;;;;5071101;28;20208;-83
2021/01/18 00:44:09;;;;;;;33.70;19.20;;;2.50;99.80;;;;;;5068767;28;20686;-84
2021/01/18 00:46:36;;;;;;;39.42;18.65;;;2.40;99.80;;;;;;5064174;28;20224;-84
2021/01/18 00:49:03;;;;;;;39.85;19.77;;;2.40;99.80;;;;;;5068967;28;20214;-85
2021/01/18 00:51:37;;;;;;;45.00;21.70;;;2.40;99.80;;;;;;5073990;28;20227;-84
2021/01/18 00:54:05;;;;;;;34.70;19.95;;;2.40;99.80;;;;;;5077109;28;20288;-84
2021/01/18 00:56:33;;;;;;;41.50;20.35;;;2.40;99.80;;;;;;5072216;28;20256;-85
2021/01/18 00:59:00;;;;;;;38.63;19.13;;;2.30;99.80;;;;;;5070968;28;20216;-85
2021/01/18 01:01:27;;;;;;;34.58;19.60;;;2.30;99.80;;;;;;5075645;28;20250;-84
2021/01/18 01:03:55;;;;;;;36.67;20.63;;;2.30;99.80;;;;;;5067836;28;20297;-84
2021/01/18 01:06:22;;;;;;;37.03;19.23;;;2.30;99.80;;;;;;5075508;28;20217;-85
2021/01/18 01:08:49;;;;;;;40.58;20.17;;;2.30;99.80;;;;;;5075444;28;20243;-85
2021/01/18 01:11:17;;;;;;;34.28;18.80;;;2.30;99.80;;;;;;5075171;28;21840;-84
2021/01/18 01:13:44;;;;;;;39.25;20.50;;;2.30;99.80;;;;;;5074729;28;20666;-84
2021/01/18 01:16:11;;;;;;;35.67;17.85;;;2.30;99.80;;;;;;5075452;28;20580;-86
2021/01/18 01:18:38;;;;;;;42.97;20.33;;;2.30;99.80;;;;;;5070205;28;20206;-85
2021/01/18 01:21:05;;;;;;;39.75;18.88;;;2.40;99.80;;;;;;5068151;28;20197;-86
2021/01/18 01:23:32;;;;;;;33.13;19.30;;;2.50;99.80;;;;;;5071431;28;20211;-84
2021/01/18 01:26:00;;;;;;;34.95;19.80;;;2.50;99.80;;;;;;5066172;28;20231;-85
2021/01/18 01:28:28;;;;;;;38.30;19.65;;;2.50;99.80;;;;;;5068803;28;20220;-84
2021/01/18 01:30:55;;;;;;;33.80;18.70;;;2.40;99.80;;;;;;5069970;28;20574;-86
2021/01/18 01:33:22;;;;;;;36.88;19.42;;;2.40;99.80;;;;;;5075131;28;20626;-86
2021/01/18 01:35:51;;;;;;;33.55;17.73;;;2.40;99.80;;;;;;5070953;28;20223;-86
2021/01/18 01:38:18;;;;;;;36.55;18.65;;;2.50;99.80;;;;;;5073255;28;20217;-84
2021/01/18 01:40:46;;;;;;;33.20;18.25;;;2.40;99.80;;;;;;5065734;28;20201;-87
2021/01/18 01:43:12;;;;;;;33.75;17.30;;;2.50;99.80;;;;;;5072226;28;20206;-86
2021/01/18 01:45:40;;;;;;;39.05;18.13;;;2.40;99.80;;;;;;5040172;28;20231;-86
2021/01/18 01:48:08;;;;;;;39.47;19.23;;;2.50;99.80;;;;;;5064244;28;20630;-86
2021/01/18 01:50:38;;;;;;;35.90;18.60;;;2.50;99.80;;;;;;5059971;28;20644;-88
2021/01/18 01:53:11;;;;;;;33.22;17.58;;;2.50;99.80;;;;;;5053559;28;20262;-86
2021/01/18 01:55:40;;;;;;;35.80;18.42;;;2.50;99.80;;;;;;5062570;28;20451;-86
2021/01/18 01:58:08;;;;;;;35.65;15.70;;;2.50;99.80;;;;;;5061088;28;21068;-85
2021/01/18 02:00:38;;;;;;;34.10;18.15;;;2.50;99.80;;;;;;5066630;28;20237;-87
2021/01/18 02:03:11;;;;;;;32.55;16.45;;;2.50;99.80;;;;;;5049693;28;20221;-86
2021/01/18 02:05:39;;;;;;;35.25;18.55;;;2.50;99.80;;;;;;5063935;28;20235;-85
2021/01/18 02:08:07;;;;;;;27.52;15.00;;;2.50;99.80;;;;;;5068996;28;20233;-85
2021/01/18 02:10:35;;;;;;;32.78;17.30;;;2.50;99.80;;;;;;5050363;28;21353;-85
2021/01/18 02:13:10;;;;;;;31.73;16.00;;;2.50;99.80;;;;;;5057496;28;20230;-85
2021/01/18 02:15:49;;;;;;;33.88;16.25;;;2.40;99.80;;;;;;5063761;28;20607;-86
2021/01/18 02:18:25;;;;;;;30.33;16.42;;;2.40;99.80;;;;;;5068764;28;20660;-86
2021/01/18 02:21:40;;;;;;;31.13;15.45;;;2.40;99.80;;;;;;5067805;28;20307;-85
2021/01/18 02:24:43;;;;;;;26.73;14.65;;;2.40;99.80;;;;;;5056864;28;20324;-85
2021/01/18 02:27:43;;;;;;;29.88;17.15;;;2.30;99.80;;;;;;5020107;28;20228;-87
2021/01/18 02:30:25;;;;;;;35.30;16.30;;;2.20;99.80;;;;;;5056756;28;20226;-87
2021/01/18 02:33:23;;;;;;;35.85;17.35;;;2.20;99.80;;;;;;5046865;28;20259;-87
2021/01/18 02:36:07;;;;;;;29.58;15.10;;;2.20;99.80;;;;;;5027428;28;20234;-85
2021/01/18 02:38:43;;;;;;;28.80;14.05;;;2.20;99.80;;;;;;5034954;28;20320;-85
2021/01/18 02:41:23;;;;;;;26.35;14.32;;;2.30;99.80;;;;;;5034550;28;20231;-85
2021/01/18 02:43:53;;;;;;;29.85;15.38;;;2.30;99.80;;;;;;5022877;28;20231;-86
2021/01/18 02:46:21;;;;;;;29.88;15.93;;;2.40;99.80;;;;;;5053257;28;20234;-85
2021/01/18 02:48:49;;;;;;;30.00;13.88;;;2.30;99.80;;;;;;5046008;28;20308;-85
2021/01/18 02:51:23;;;;;;;30.38;14.20;;;2.30;99.80;;;;;;5046548;28;20240;-85
2021/01/18 02:53:59;;;;;;;23.67;13.75;;;2.30;99.80;;;;;;5044421;28;20232;-85
2021/01/18 02:56:28;;;;;;;24.98;15.15;;;2.30;99.80;;;;;;5038995;28;20320;-87
2021/01/18 02:58:58;;;;;;;30.35;15.63;;;2.30;99.80;;;;;;5033278;28;20262;-88
2021/01/18 03:01:53;;;;;;;25.75;13.18;;;2.30;99.80;;;;;;5042639;28;20228;-87
2021/01/18 03:04:32;;;;;;;30.15;13.40;;;2.40;99.80;;;;;;5048133;28;20289;-85
2021/01/18 03:07:06;;;;;;;24.92;13.32;;;2.40;99.80;;;;;;5052332;28;20720;-85
2021/01/18 03:09:40;;;;;;;29.75;13.95;;;2.50;99.80;;;;;;5052585;28;20262;-85
2021/01/18 03:12:11;;;;;;;26.00;12.52;;;2.50;99.80;;;;;;5052182;28;20203;-85
2021/01/18 03:14:45;;;;;;;22.55;12.80;;;2.50;99.80;;;;;;5033878;28;20331;-85
2021/01/18 03:17:19;;;;;;;20.88;11.60;;;2.50;99.80;;;;;;5055444;28;20236;-85
2021/01/18 03:19:47;;;;;;;24.05;11.88;;;2.60;99.80;;;;;;5047295;28;20306;-86
2021/01/18 03:22:23;;;;;;;22.10;12.27;;;2.60;99.80;;;;;;5044297;28;20236;-87
2021/01/18 03:24:52;;;;;;;29.25;12.15;;;2.60;99.80;;;;;;5038985;28;20225;-86
2021/01/18 03:27:20;;;;;;;20.58;11.70;;;2.60;99.80;;;;;;5030760;28;20235;-86
2021/01/18 03:29:49;;;;;;;19.95;11.52;;;2.60;99.80;;;;;;5030310;28;20236;-86
2021/01/18 03:32:16;;;;;;;17.45;10.48;;;2.70;99.80;;;;;;5057687;28;20229;-85
2021/01/18 03:34:44;;;;;;;19.98;10.65;;;2.70;99.80;;;;;;5037276;28;20336;-87
2021/01/18 03:37:11;;;;;;;18.60;11.88;;;2.70;99.80;;;;;;5035915;28;20233;-87
2021/01/18 03:39:39;;;;;;;19.30;11.30;;;2.70;99.80;;;;;;5040300;28;20239;-85
2021/01/18 03:42:06;;;;;;;22.60;11.65;;;2.60;99.80;;;;;;5040804;28;20304;-85
2021/01/18 03:44:35;;;;;;;20.15;10.90;;;2.60;99.80;;;;;;5022492;28;20232;-86
2021/01/18 03:47:03;;;;;;;22.38;11.35;;;2.60;99.80;;;;;;5059850;28;20724;-85
2021/01/18 03:49:30;;;;;;;20.27;11.20;;;2.60;99.80;;;;;;5046319;28;20259;-86
2021/01/18 03:51:57;;;;;;;21.35;12.27;;;2.60;99.80;;;;;;5037683;28;20225;-85
2021/01/18 03:54:27;;;;;;;20.65;10.88;;;2.60;99.80;;;;;;5038464;28;20220;-86
2021/01/18 03:56:54;;;;;;;17.50;11.23;;;2.60;99.80;;;;;;5048611;28;20229;-85
2021/01/18 03:59:21;;;;;;;16.48;10.15;;;2.70;99.80;;;;;;5024538;28;20234;-86
2021/01/18 04:01:48;;;;;;;16.92;10.30;;;2.60;99.80;;;;;;5059642;28;20225;-86
2021/01/18 04:04:16;;;;;;;20.35;10.90;;;2.60;99.80;;;;;;5051406;28;20278;-86
2021/01/18 04:06:43;;;;;;;20.60;10.40;;;2.60;99.80;;;;;;5051419;28;20224;-85
2021/01/18 04:09:10;;;;;;;20.75;10.45;;;2.60;99.80;;;;;;5043862;28;20234;-87
2021/01/18 04:11:37;;;;;;;19.63;10.93;;;2.60;99.80;;;;;;5047443;28;20228;-86
2021/01/18 04:14:05;;;;;;;15.07;8.80;;;2.70;99.80;;;;;;5039954;28;20765;-86
2021/01/18 04:16:40;;;;;;;16.25;9.18;;;2.80;99.80;;;;;;5051401;28;20233;-86
2021/01/18 04:19:07;;;;;;;17.75;8.20;;;2.80;99.80;;;;;;5047870;28;20229;-87
2021/01/18 04:21:41;;;;;;;12.80;8.45;;;2.90;99.80;;;;;;5051473;28;20751;-86
2021/01/18 04:24:09;;;;;;;15.23;8.13;;;2.90;99.80;;;;;;5051376;28;20232;-86
2021/01/18 04:26:38;;;;;;;12.50;7.55;;;3.00;99.80;;;;;;5033152;28;20282;-86
2021/01/18 04:29:06;;;;;;;12.27;7.30;;;3.10;99.80;;;;;;5040769;28;20318;-85
2021/01/18 04:31:33;;;;;;;14.50;7.60;;;3.10;99.80;;;;;;5049305;28;20224;-85
2021/01/18 04:34:00;;;;;;;16.00;8.57;;;3.00;99.80;;;;;;5049842;28;20648;-85
2021/01/18 04:36:34;;;;;;;12.73;7.70;;;3.00;99.80;;;;;;5041447;28;20284;-85
2021/01/18 04:39:01;;;;;;;13.93;8.32;;;3.00;99.80;;;;;;5043500;28;20233;-86
2021/01/18 04:41:29;;;;;;;17.27;8.55;;;2.90;99.80;;;;;;5040014;28;20740;-85
2021/01/18 04:43:58;;;;;;;14.75;8.80;;;2.90;99.80;;;;;;5039805;28;20267;-86
2021/01/18 04:46:30;;;;;;;16.52;8.95;;;2.90;99.80;;;;;;5038124;28;20230;-86
2021/01/18 04:48:59;;;;;;;15.38;8.32;;;2.80;99.80;;;;;;5020099;28;20294;-86
2021/01/18 04:51:28;;;;;;;15.48;8.10;;;2.80;99.80;;;;;;5034176;28;20229;-85
2021/01/18 04:53:57;;;;;;;17.85;7.75;;;2.80;99.80;;;;;;5032255;28;20221;-86
2021/01/18 04:56:50;;;;;;;12.65;8.23;;;2.80;99.80;;;;;;5035615;28;20237;-86
2021/01/18 04:59:21;;;;;;;12.73;7.40;;;2.80;99.80;;;;;;5032416;28;20241;-85
2021/01/18 05:02:05;;;;;;;14.63;7.32;;;2.80;99.80;;;;;;5050777;28;20229;-86
2021/01/18 05:04:38;;;;;;;13.13;7.30;;;2.70;99.80;;;;;;5049352;28;20237;-85
2021/01/18 05:07:32;;;;;;;14.25;7.63;;;2.80;99.80;;;;;;5044381;28;20236;-85
2021/01/18 05:10:04;;;;;;;14.50;6.85;;;2.90;99.80;;;;;;5018830;28;20304;-86
2021/01/18 05:12:32;;;;;;;14.40;7.60;;;3.00;99.80;;;;;;5029192;28;20231;-86
2021/01/18 05:15:04;;;;;;;13.65;8.70;;;2.90;99.80;;;;;;5013383;28;20235;-86
2021/01/18 05:17:41;;;;;;;12.77;8.18;;;2.90;99.80;;;;;;5040908;28;20604;-86
2021/01/18 05:20:10;;;;;;;14.82;7.72;;;2.90;99.80;;;;;;5022678;28;20237;-85
2021/01/18 05:22:39;;;;;;;13.05;8.15;;;3.00;99.80;;;;;;5008046;28;20292;-85
2021/01/18 05:25:07;;;;;;;11.27;7.60;;;3.00;99.80;;;;;;5020644;28;20223;-85
2021/01/18 05:27:34;;;;;;;12.55;7.10;;;3.00;99.80;;;;;;5013779;28;20229;-86
2021/01/18 05:30:02;;;;;;;13.10;6.80;;;3.10;99.80;;;;;;5035782;28;20308;-86
2021/01/18 05:32:29;;;;;;;15.00;8.20;;;3.00;99.80;;;;;;5038506;28;20227;-88
2021/01/18 05:35:12;;;;;;;15.55;8.15;;;2.90;99.80;;;;;;5042618;28;20693;-85
2021/01/18 05:38:01;;;;;;;15.38;8.30;;;2.90;99.80;;;;;;5049128;28;20644;-87
2021/01/18 05:40:28;;;;;;;12.10;7.10;;;2.80;99.80;;;;;;5041983;22;20254;-85
2021/01/18 05:43:01;;;;;;;19.25;8.77;;;2.70;99.80;;;;;;4978053;28;20996;-85
2021/01/18 05:45:30;;;;;;;13.00;7.82;;;2.60;99.80;;;;;;4969582;28;20262;-85
2021/01/18 05:47:58;;;;;;;14.38;8.70;;;2.50;99.80;;;;;;5005054;28;20310;-85
2021/01/18 05:50:27;;;;;;;14.18;8.75;;;2.50;99.80;;;;;;4974489;28;20231;-86
2021/01/18 05:52:54;;;;;;;8.85;6.68;;;2.60;99.80;;;;;;4963106;28;20235;-86
2021/01/18 05:55:24;;;;;;;15.65;8.60;;;2.60;99.80;;;;;;4956867;28;20234;-86
2021/01/18 05:57:57;;;;;;;17.00;8.02;;;2.60;99.80;;;;;;4957579;28;20231;-86
2021/01/18 06:00:33;;;;;;;13.55;8.13;;;2.50;99.80;;;;;;4959742;28;20241;-85
2021/01/18 06:03:05;;;;;;;19.42;9.18;;;2.50;99.80;;;;;;4989342;28;20255;-85
2021/01/18 06:05:34;;;;;;;15.93;7.45;;;2.60;99.80;;;;;;4990027;28;20653;-85
2021/01/18 06:08:12;;;;;;;12.50;6.65;;;2.60;99.80;;;;;;4989176;28;20377;-86
2021/01/18 06:10:40;;;;;;;18.15;7.50;;;2.70;99.80;;;;;;4984132;28;20227;-85
2021/01/18 06:13:21;;;;;;;14.65;6.95;;;2.80;99.80;;;;;;4973020;28;20242;-85
2021/01/18 06:15:50;;;;;;;8.55;5.70;;;3.00;99.80;;;;;;4987517;28;20226;-85
2021/01/18 06:18:17;;;;;;;19.23;7.28;;;3.00;99.80;;;;;;4990238;28;20317;-85
2021/01/18 06:20:46;;;;;;;8.40;6.13;;;3.10;99.80;;;;;;4982405;28;20241;-85
2021/01/18 06:23:21;;;;;;;16.08;9.35;;;3.20;99.80;;;;;;4960065;28;20234;-86
2021/01/18 06:25:54;;;;;;;22.55;10.23;;;3.30;99.80;;;;;;4964956;28;20617;-85
2021/01/18 06:28:27;;;;;;;18.40;8.95;;;3.30;99.80;;;;;;4958584;28;20904;-85
2021/01/18 06:30:56;;;;;;;16.63;8.02;;;3.40;99.80;;;;;;4967065;28;20230;-86
2021/01/18 06:33:38;;;;;;;17.30;8.10;;;3.40;99.80;;;;;;4964488;28;20239;-86
2021/01/18 06:36:14;;;;;;;18.73;8.85;;;3.40;99.80;;;;;;4982534;28;20231;-85
2021/01/18 06:38:42;;;;;;;17.27;9.63;;;3.40;99.80;;;;;;4981674;28;20246;-85
2021/01/18 06:41:09;;;;;;;15.85;8.00;;;3.30;99.80;;;;;;4965664;28;20245;-84
2021/01/18 06:43:44;;;;;;;20.60;9.38;;;3.30;99.80;;;;;;4944749;28;20734;-84
2021/01/18 06:46:16;;;;;;;11.88;7.80;;;3.30;99.80;;;;;;4966824;28;20771;-85
2021/01/18 06:48:46;;;;;;;18.95;9.52;;;3.30;99.80;;;;;;4970720;28;20228;-85
2021/01/18 06:51:17;;;;;;;14.38;8.35;;;3.30;99.80;;;;;;4977315;28;20265;-85
2021/01/18 06:53:49;;;;;;;12.35;7.40;;;3.30;99.80;;;;;;4970828;28;20241;-85
2021/01/18 06:56:45;;;;;;;18.05;8.05;;;3.40;99.80;;;;;;4946711;28;20694;-85
2021/01/18 06:59:33;;;;;;;16.15;7.07;;;3.30;99.80;;;;;;4946827;28;20233;-85
2021/01/18 07:02:16;;;;;;;11.82;7.15;;;3.30;99.80;;;;;;4966514;28;20232;-85
2021/01/18 07:04:46;;;;;;;14.85;6.15;;;3.20;99.80;;;;;;4951875;28;20217;-83
2021/01/18 07:07:24;;;;;;;13.45;6.57;;;3.20;99.80;;;;;;4952016;28;20233;-83
2021/01/18 07:09:56;;;;;;;13.82;6.18;;;3.20;99.80;;;;;;4936195;28;20232;-83
2021/01/18 07:12:25;;;;;;;16.33;6.80;;;3.10;99.80;;;;;;4926239;28;20259;-83
2021/01/18 07:15:00;;;;;;;12.80;6.40;;;3.10;99.80;;;;;;4936970;28;20223;-84
2021/01/18 07:17:45;;;;;;;14.05;6.68;;;3.10;99.80;;;;;;4966272;28;20319;-84
2021/01/18 07:20:19;;;;;;;13.90;7.00;;;3.10;99.80;;;;;;4984366;28;20245;-83
2021/01/18 07:23:27;;;;;;;10.40;6.55;;;3.10;99.80;;;;;;4980086;28;20241;-84
2021/01/18 07:26:21;;;;;;;15.38;8.43;;;3.10;99.80;;;;;;4957486;28;20273;-84
2021/01/18 07:28:55;;;;;;;10.38;7.03;;;3.20;99.80;;;;;;4947123;28;20311;-83
2021/01/18 07:31:24;;;;;;;10.52;5.60;;;3.20;99.80;;;;;;4983071;28;20645;-84
2021/01/18 07:33:52;;;;;;;9.48;5.95;;;3.20;99.80;;;;;;4990935;28;20264;-84
2021/01/18 07:36:26;;;;;;;18.00;5.95;;;3.30;99.80;;;;;;4977384;28;20313;-84
2021/01/18 07:38:55;;;;;;;9.95;6.15;;;3.20;99.80;;;;;;4967075;28;20320;-84
2021/01/18 07:41:32;;;;;;;10.70;7.03;;;3.20;99.80;;;;;;4963096;28;20567;-84
2021/01/18 07:43:59;;;;;;;12.13;5.97;;;3.20;99.80;;;;;;4963589;28;20757;-84
2021/01/18 07:46:36;;;;;;;12.50;6.65;;;3.30;99.80;;;;;;4995139;28;21067;-84
2021/01/18 07:49:40;;;;;;;10.70;6.05;;;3.30;99.80;;;;;;4988075;28;20239;-84
2021/01/18 07:52:27;;;;;;;13.43;6.20;;;3.30;99.80;;;;;;4986516;28;20230;-84
2021/01/18 07:54:56;;;;;;;11.18;5.85;;;3.30;99.80;;;;;;4983730;28;20225;-84
2021/01/18 07:57:45;;;;;;;10.70;5.38;;;3.30;99.80;;;;;;4981473;28;20296;-84
2021/01/18 08:04:19;;;;;;;12.02;5.88;;;3.30;99.80;;;;;;4962195;28;20239;-85
2021/01/18 08:07:02;;;;;;;13.80;6.10;;;3.30;99.80;;;;;;4965013;28;20227;-85
2021/01/18 08:09:29;;;;;;;20.05;6.13;;;3.40;99.80;;;;;;4958343;28;20256;-85
2021/01/18 08:12:31;;;;;;;13.90;6.50;;;3.30;99.80;;;;;;4932577;28;20269;-85
2021/01/18 08:15:05;;;;;;;12.55;5.32;;;3.30;99.80;;;;;;4959594;28;20222;-85
2021/01/18 08:17:32;;;;;;;10.68;5.78;;;3.30;99.80;;;;;;4959884;28;20228;-85
2021/01/18 08:20:09;;;;;;;13.90;6.10;;;3.30;99.80;;;;;;4970881;28;20244;-86
2021/01/18 08:22:37;;;;;;;10.10;5.50;;;3.40;99.80;;;;;;4978804;28;20233;-84
2021/01/18 08:25:05;;;;;;;12.15;5.60;;;3.40;99.80;;;;;;4959235;28;20265;-85
2021/01/18 08:27:42;;;;;;;15.48;6.55;;;3.40;99.80;;;;;;4966823;28;20618;-85
2021/01/18 08:30:20;;;;;;;11.95;6.68;;;3.40;99.80;;;;;;4968912;28;20250;-85
2021/01/18 08:32:55;;;;;;;11.15;6.55;;;3.40;99.80;;;;;;4983830;28;21036;-85
2021/01/18 08:35:28;;;;;;;9.38;5.63;;;3.50;99.80;;;;;;4976016;28;20237;-85
2021/01/18 08:38:06;;;;;;;13.38;6.60;;;3.50;99.80;;;;;;4956745;28;20336;-85
2021/01/18 08:40:40;;;;;;;9.75;6.40;;;3.50;99.80;;;;;;4954004;28;20223;-85
2021/01/18 08:43:08;;;;;;;11.63;5.43;;;3.50;99.80;;;;;;4965713;28;20692;-85
2021/01/18 08:45:38;;;;;;;8.32;5.80;;;3.50;99.80;;;;;;4984201;28;20232;-85
2021/01/18 08:48:07;;;;;;;10.25;6.15;;;3.70;99.80;;;;;;4971550;28;20227;-84
2021/01/18 08:50:45;;;;;;;9.80;6.32;;;3.70;99.80;;;;;;4948812;28;20278;-85
2021/01/18 08:53:34;;;;;;;10.25;6.63;;;3.70;99.80;;;;;;4963870;28;20232;-85
2021/01/18 08:56:03;;;;;;;9.85;6.30;;;3.70;99.80;;;;;;4961383;28;20304;-84
2021/01/18 08:58:32;;;;;;;11.27;5.43;;;3.80;99.80;;;;;;4960939;28;20224;-85
2021/01/18 09:01:01;;;;;;;20.63;6.10;;;3.80;99.80;;;;;;5003583;28;20317;-84
2021/01/18 09:03:28;;;;;;;13.25;6.25;;;3.80;99.80;;;;;;4989253;28;20235;-85
2021/01/18 09:05:57;;;;;;;10.88;6.30;;;3.80;99.80;;;;;;4992051;28;20676;-84
2021/01/18 09:08:26;;;;;;;12.43;6.60;;;3.80;99.80;;;;;;4987196;28;20239;-84
2021/01/18 09:10:54;;;;;;;14.40;6.47;;;3.70;99.80;;;;;;4972810;28;20309;-85
2021/01/18 09:13:23;;;;;;;10.07;6.05;;;3.70;99.80;;;;;;4960558;28;20275;-85
2021/01/18 09:15:52;;;;;;;10.77;5.78;;;3.70;99.80;;;;;;4971681;28;20314;-85
2021/01/18 09:18:22;;;;;;;12.00;5.90;;;3.70;99.80;;;;;;4991724;28;20277;-84
2021/01/18 09:20:50;;;;;;;14.45;6.47;;;3.70;99.80;;;;;;4983755;28;20309;-85
2021/01/18 09:23:18;;;;;;;11.48;5.90;;;3.70;99.80;;;;;;4975246;28;20226;-84
2021/01/18 09:25:59;;;;;;;19.77;6.10;;;3.70;99.80;;;;;;4976231;28;20230;-85
2021/01/18 09:28:27;;;;;;;13.70;6.80;;;3.80;99.80;;;;;;4963017;28;20259;-84
2021/01/18 09:30:55;;;;;;;10.55;5.95;;;3.80;99.80;;;;;;4994178;28;20238;-84
2021/01/18 09:33:27;;;;;;;10.70;5.70;;;3.70;99.80;;;;;;4988017;28;20288;-85
2021/01/18 09:35:54;;;;;;;20.35;6.75;;;3.80;99.80;;;;;;4985339;28;20297;-84
2021/01/18 09:38:21;;;;;;;12.98;6.38;;;3.90;99.80;;;;;;4980364;28;20231;-85
2021/01/18 09:40:48;;;;;;;11.63;5.82;;;4.00;99.80;;;;;;4966418;28;20633;-84
2021/01/18 09:43:20;;;;;;;10.45;5.65;;;4.00;99.80;;;;;;4958728;28;20660;-85
2021/01/18 09:45:58;;;;;;;10.98;5.88;;;4.10;99.80;;;;;;4981769;28;20717;-85
2021/01/18 09:48:26;;;;;;;12.50;5.78;;;4.20;99.80;;;;;;4981913;28;20236;-84
2021/01/18 09:51:03;;;;;;;12.20;6.03;;;4.30;99.80;;;;;;4973608;28;20314;-85
2021/01/18 09:53:31;;;;;;;12.52;6.32;;;4.20;99.80;;;;;;4967431;28;20677;-84
2021/01/18 09:56:01;;;;;;;12.63;7.10;;;4.30;99.80;;;;;;4970231;28;20227;-84
2021/01/18 09:58:37;;;;;;;9.65;6.07;;;4.20;99.80;;;;;;4958752;28;20732;-85
2021/01/18 10:01:09;;;;;;;8.18;5.65;;;4.20;99.80;;;;;;4982533;28;20793;-85
2021/01/18 10:03:39;;;;;;;13.93;6.70;;;4.20;99.80;;;;;;4985752;28;20317;-85
2021/01/18 10:06:07;;;;;;;11.38;5.90;;;4.30;99.80;;;;;;4990884;28;20268;-84
2021/01/18 10:08:36;;;;;;;12.30;6.93;;;4.40;99.80;;;;;;4989013;28;20260;-85
2021/01/18 10:11:04;;;;;;;22.30;7.18;;;4.50;99.80;;;;;;4980604;28;20782;-85
2021/01/18 10:13:32;;;;;;;8.93;6.20;;;4.50;99.80;;;;;;4939092;28;20230;-85
2021/01/18 10:16:08;;;;;;;9.77;5.70;;;4.50;99.80;;;;;;4960388;28;20685;-85
2021/01/18 10:18:40;;;;;;;8.55;5.95;;;4.60;99.80;;;;;;4984826;28;20239;-85
2021/01/18 10:21:08;;;;;;;19.63;6.53;;;4.60;99.80;;;;;;4977977;28;20874;-85
2021/01/18 10:23:37;;;;;;;15.77;7.35;;;4.70;99.80;;;;;;4966691;28;20652;-85
2021/01/18 10:26:21;;;;;;;12.23;7.60;;;4.90;99.80;;;;;;4928757;28;20640;-85
2021/01/18 10:28:52;;;;;;;8.63;5.75;;;5.10;99.80;;;;;;4929501;28;20261;-85
2021/01/18 10:31:21;;;;;;;11.43;6.85;;;5.40;99.80;;;;;;4955279;28;20233;-85
2021/01/18 10:34:10;;;;;;;9.70;5.80;;;5.70;99.80;;;;;;4966517;28;20303;-85
2021/01/18 10:36:37;;;;;;;10.70;6.22;;;5.80;99.80;;;;;;4920465;28;20237;-84
2021/01/18 10:39:05;;;;;;;10.18;6.10;;;5.80;99.80;;;;;;4950711;28;20231;-79
2021/01/18 10:41:33;;;;;;;9.40;5.72;;;5.80;99.80;;;;;;4963944;28;20231;-79
2021/01/18 10:44:21;;;;;;;9.52;5.90;;;5.80;99.80;;;;;;4975639;28;20332;-85
2021/01/18 10:46:52;;;;;;;9.02;6.40;;;5.70;99.80;;;;;;4996009;28;20723;-85
2021/01/18 10:49:26;;;;;;;21.83;7.97;;;5.60;99.80;;;;;;4996792;28;20241;-85
2021/01/18 10:52:05;;;;;;;13.60;6.60;;;5.60;99.80;;;;;;4980696;28;20605;-85
2021/01/18 10:54:32;;;;;;;9.05;6.50;;;5.70;99.80;;;;;;4981877;28;20226;-85
2021/01/18 10:57:00;;;;;;;11.57;6.78;;;5.80;99.80;;;;;;4980720;28;20737;-85
2021/01/18 10:59:28;;;;;;;12.20;8.13;;;5.90;99.80;;;;;;4959193;28;20272;-84
2021/01/18 11:02:07;;;;;;;10.07;6.30;;;6.10;99.80;;;;;;4984155;28;20300;-85
2021/01/18 11:04:35;;;;;;;13.70;6.60;;;6.30;99.80;;;;;;4961508;28;20328;-86
2021/01/18 11:07:03;;;;;;;10.43;6.45;;;6.40;99.80;;;;;;4979998;28;20310;-85
2021/01/18 11:09:32;;;;;;;12.93;6.85;;;6.30;99.80;;;;;;4978374;28;20321;-85
2021/01/18 11:12:00;;;;;;;11.77;6.97;;;6.10;99.80;;;;;;4960776;28;20252;-85
2021/01/18 11:14:28;;;;;;;11.13;6.88;;;5.80;99.80;;;;;;4978475;28;20863;-86
2021/01/18 11:16:56;;;;;;;9.48;6.40;;;5.60;99.80;;;;;;4993756;28;20655;-84
2021/01/18 11:19:25;;;;;;;19.35;6.13;;;5.50;99.80;;;;;;4979817;28;20238;-85
2021/01/18 11:21:52;;;;;;;17.10;6.18;;;5.30;99.80;;;;;;4987654;28;20255;-86
2021/01/18 11:24:19;;;;;;;14.02;6.70;;;5.30;99.80;;;;;;4981926;28;20348;-84
2021/01/18 11:26:49;;;;;;;15.85;5.93;;;5.30;99.80;;;;;;4969077;28;20257;-86
2021/01/18 11:29:17;;;;;;;9.88;6.03;;;5.30;99.80;;;;;;4969031;28;20226;-84
2021/01/18 11:31:47;;;;;;;12.75;6.82;;;5.30;99.80;;;;;;5007865;28;20261;-85
2021/01/18 11:34:15;;;;;;;14.02;6.50;;;5.20;99.80;;;;;;4984700;28;20592;-85
2021/01/18 11:36:43;;;;;;;10.98;6.93;;;5.10;99.80;;;;;;4968223;28;20696;-85
2021/01/18 11:39:11;;;;;;;11.40;6.07;;;5.10;99.80;;;;;;4957493;28;20803;-86
2021/01/18 11:41:38;;;;;;;15.40;6.80;;;5.20;99.80;;;;;;4980352;28;20241;-85
2021/01/18 11:44:07;;;;;;;13.73;7.10;;;5.10;99.80;;;;;;4954483;28;20243;-85
2021/01/18 11:46:34;;;;;;;10.88;5.68;;;5.10;99.80;;;;;;4981801;28;20276;-85
2021/01/18 11:49:02;;;;;;;10.02;5.60;;;5.10;99.80;;;;;;4990864;28;20244;-85
2021/01/18 11:51:30;;;;;;;11.48;6.45;;;5.20;99.80;;;;;;4975617;28;20735;-84
2021/01/18 11:53:58;;;;;;;14.75;7.03;;;5.20;99.80;;;;;;5002081;28;20234;-85
2021/01/18 11:56:32;;;;;;;13.38;7.43;;;5.30;99.80;;;;;;4981467;28;20306;-85
2021/01/18 11:59:00;;;;;;;14.45;7.75;;;5.30;99.80;;;;;;4979428;28;20236;-84
2021/01/18 12:01:27;;;;;;;18.55;7.82;;;5.40;99.80;;;;;;4964328;28;20295;-85
2021/01/18 12:03:56;;;;;;;9.93;6.20;;;5.50;99.80;;;;;;4974052;28;20313;-83
2021/01/18 12:06:31;;;;;;;13.05;7.88;;;5.60;99.80;;;;;;4975711;28;20320;-85
2021/01/18 12:09:01;;;;;;;11.18;6.47;;;5.80;99.80;;;;;;4962133;28;20252;-86
2021/01/18 12:11:28;;;;;;;12.15;6.68;;;5.80;99.80;;;;;;4976719;28;20241;-85
2021/01/18 12:13:56;;;;;;;11.93;7.45;;;5.80;99.80;;;;;;4965200;28;20298;-85
2021/01/18 12:16:23;;;;;;;19.20;8.38;;;5.90;99.80;;;;;;4962504;28;20230;-85
2021/01/18 12:18:51;;;;;;;12.55;7.75;;;6.10;99.80;;;;;;4960779;28;20253;-85
2021/01/18 12:21:18;;;;;;;14.80;7.82;;;6.30;99.80;;;;;;4959998;28;20232;-85
2021/01/18 12:23:45;;;;;;;11.60;7.40;;;6.40;99.80;;;;;;4972145;28;20741;-86
2021/01/18 12:26:16;;;;;;;14.73;7.47;;;6.50;99.80;;;;;;4970371;28;20809;-85
2021/01/18 12:28:45;;;;;;;13.00;7.38;;;6.40;99.80;;;;;;4960456;28;20228;-86
2021/01/18 12:31:14;;;;;;;13.10;6.88;;;6.40;99.80;;;;;;4995939;28;20260;-85
2021/01/18 12:33:42;;;;;;;11.63;8.18;;;6.20;99.80;;;;;;4979424;28;20252;-86
2021/01/18 12:36:10;;;;;;;13.65;6.60;;;6.10;99.80;;;;;;4977677;28;20248;-86
2021/01/18 12:38:39;;;;;;;12.05;7.15;;;6.00;99.80;;;;;;4978646;28;20301;-86
2021/01/18 12:41:07;;;;;;;10.10;6.80;;;5.90;99.80;;;;;;4959416;28;20237;-85
2021/01/18 12:43:35;;;;;;;14.45;8.02;;;5.90;99.80;;;;;;4950625;28;20259;-86
2021/01/18 12:46:02;;;;;;;9.70;6.50;;;5.90;99.80;;;;;;4962850;28;20258;-87
2021/01/18 12:48:30;;;;;;;10.40;6.47;;;5.80;99.80;;;;;;4976188;28;20243;-86
2021/01/18 12:50:57;;;;;;;14.40;6.85;;;5.80;99.80;;;;;;4976531;28;20237;-87
2021/01/18 12:53:43;;;;;;;13.68;7.50;;;5.70;99.80;;;;;;4977723;28;20288;-86
2021/01/18 12:56:11;;;;;;;16.48;9.48;;;5.60;99.80;;;;;;4971816;28;20239;-84
2021/01/18 12:58:39;;;;;;;14.35;8.75;;;5.60;99.80;;;;;;4959105;28;20256;-85
2021/01/18 13:01:06;;;;;;;14.85;7.88;;;5.60;99.80;;;;;;4967379;28;20269;-86
2021/01/18 13:03:34;;;;;;;10.40;7.65;;;5.70;99.80;;;;;;4987877;28;20238;-85
2021/01/18 13:06:02;;;;;;;11.25;7.20;;;5.90;99.80;;;;;;4984000;28;20234;-86
2021/01/18 13:08:35;;;;;;;17.67;7.88;;;6.30;99.80;;;;;;4975365;28;20704;-85
2021/01/18 13:11:03;;;;;;;16.38;9.25;;;7.10;99.80;;;;;;4959388;28;20225;-82
2021/01/18 13:13:31;;;;;;;14.43;9.07;;;7.50;99.80;;;;;;4980387;28;20236;-81